Terminal Aerodrome Forecast
Issued by NWS

Home | Current Version | Previous Version | Graphics & Text | Print | Product List | Glossary On
Versions: 1 2 3 4 5 6 7 8 9 10 11 12 13 14 15 16
000
FTUS43 KTOP 021042 AAA
TAFFOE
TAF AMD
KFOE 021042Z 0211/0306 18011KT P6SM -SHRA VCTS BKN090CB
     FM021500 18011KT P6SM SCT100
     FM021800 18013G22KT P6SM FEW120
     FM030000 17007KT P6SM FEW120=

USA.gov is the U.S. government's official web portal to all federal, state and local government web resources and services.